sensor_id;sensor_type;location;lat;lon;timestamp;temperature;humidity
76104;HTU21D;64831;44.870;37.336;2023-03-01T00:00:21;4.77;71.74
76104;HTU21D;64831;44.870;37.336;2023-03-01T00:02:47;4.75;71.42
76104;HTU21D;64831;44.870;37.336;2023-03-01T00:05:12;4.69;71.68
76104;HTU21D;64831;44.870;37.336;2023-03-01T00:07:38;4.64;71.79
76104;HTU21D;64831;44.870;37.336;2023-03-01T00:10:04;4.60;71.66
76104;HTU21D;64831;44.870;37.336;2023-03-01T00:12:31;4.57;71.51
76104;HTU21D;64831;44.870;37.336;2023-03-01T00:14:56;4.47;71.71
76104;HTU21D;64831;44.870;37.336;2023-03-01T00:17:22;4.39;72.29
76104;HTU21D;64831;44.870;37.336;2023-03-01T00:19:48;4.36;72.31
76104;HTU21D;64831;44.870;37.336;2023-03-01T00:22:13;4.32;72.48
76104;HTU21D;64831;44.870;37.336;2023-03-01T00:24:39;4.29;72.47
76104;HTU21D;64831;44.870;37.336;2023-03-01T00:27:05;4.24;72.90
76104;HTU21D;64831;44.870;37.336;2023-03-01T00:29:30;4.23;72.90
76104;HTU21D;64831;44.870;37.336;2023-03-01T00:31:56;4.18;73.12
76104;HTU21D;64831;44.870;37.336;2023-03-01T00:34:22;4.15;73.05
76104;HTU21D;64831;44.870;37.336;2023-03-01T00:36:47;4.12;73.34
76104;HTU21D;64831;44.870;37.336;2023-03-01T00:39:14;4.08;73.53
76104;HTU21D;64831;44.870;37.336;2023-03-01T00:41:40;4.07;73.59
76104;HTU21D;64831;44.870;37.336;2023-03-01T00:44:07;4.04;73.86
76104;HTU21D;64831;44.870;37.336;2023-03-01T00:46:34;4.01;73.78
76104;HTU21D;64831;44.870;37.336;2023-03-01T00:49:00;3.95;73.53
76104;HTU21D;64831;44.870;37.336;2023-03-01T00:51:28;3.90;74.11
76104;HTU21D;64831;44.870;37.336;2023-03-01T00:53:59;3.87;74.15
76104;HTU21D;64831;44.870;37.336;2023-03-01T00:56:25;3.84;74.27
76104;HTU21D;64831;44.870;37.336;2023-03-01T00:58:51;3.83;74.02
76104;HTU21D;64831;44.870;37.336;2023-03-01T01:01:19;3.80;73.93
76104;HTU21D;64831;44.870;37.336;2023-03-01T01:03:49;3.79;74.15
76104;HTU21D;64831;44.870;37.336;2023-03-01T01:06:16;3.78;74.07
76104;HTU21D;64831;44.870;37.336;2023-03-01T01:08:42;3.80;73.51
76104;HTU21D;64831;44.870;37.336;2023-03-01T01:11:08;3.78;73.57
76104;HTU21D;64831;44.870;37.336;2023-03-01T01:13:34;3.78;73.32
76104;HTU21D;64831;44.870;37.336;2023-03-01T01:16:00;3.77;73.64
76104;HTU21D;64831;44.870;37.336;2023-03-01T01:18:26;3.77;73.94
76104;HTU21D;64831;44.870;37.336;2023-03-01T01:20:52;3.77;73.86
76104;HTU21D;64831;44.870;37.336;2023-03-01T01:23:18;3.77;73.93
76104;HTU21D;64831;44.870;37.336;2023-03-01T01:25:46;3.77;73.81
76104;HTU21D;64831;44.870;37.336;2023-03-01T01:28:11;3.76;74.12
76104;HTU21D;64831;44.870;37.336;2023-03-01T01:30:37;3.76;73.74
76104;HTU21D;64831;44.870;37.336;2023-03-01T01:33:03;3.75;74.15
76104;HTU21D;64831;44.870;37.336;2023-03-01T01:35:28;3.76;73.81
76104;HTU21D;64831;44.870;37.336;2023-03-01T01:37:54;3.76;73.41
76104;HTU21D;64831;44.870;37.336;2023-03-01T01:40:20;3.76;73.70
76104;HTU21D;64831;44.870;37.336;2023-03-01T01:42:45;3.78;73.63
76104;HTU21D;64831;44.870;37.336;2023-03-01T01:45:32;3.79;73.73
76104;HTU21D;64831;44.870;37.336;2023-03-01T01:48:00;3.79;73.63
76104;HTU21D;64831;44.870;37.336;2023-03-01T01:50:28;3.80;73.82
76104;HTU21D;64831;44.870;37.336;2023-03-01T01:53:05;3.79;74.01
76104;HTU21D;64831;44.870;37.336;2023-03-01T01:55:31;3.79;73.80
76104;HTU21D;64831;44.870;37.336;2023-03-01T01:57:58;3.79;73.91
76104;HTU21D;64831;44.870;37.336;2023-03-01T02:00:26;3.78;74.01
76104;HTU21D;64831;44.870;37.336;2023-03-01T02:02:59;3.79;73.60
76104;HTU21D;64831;44.870;37.336;2023-03-01T02:05:32;3.80;73.92
76104;HTU21D;64831;44.870;37.336;2023-03-01T02:07:59;3.77;74.02
76104;HTU21D;64831;44.870;37.336;2023-03-01T02:10:25;3.79;73.61
76104;HTU21D;64831;44.870;37.336;2023-03-01T02:12:52;3.82;73.53
76104;HTU21D;64831;44.870;37.336;2023-03-01T02:15:20;3.82;73.86
76104;HTU21D;64831;44.870;37.336;2023-03-01T02:17:46;3.83;73.72
76104;HTU21D;64831;44.870;37.336;2023-03-01T02:20:21;3.84;73.44
76104;HTU21D;64831;44.870;37.336;2023-03-01T02:22:48;3.85;73.35
76104;HTU21D;64831;44.870;37.336;2023-03-01T02:30:39;3.85;73.43
76104;HTU21D;64831;44.870;37.336;2023-03-01T02:33:25;3.86;73.36
76104;HTU21D;64831;44.870;37.336;2023-03-01T02:35:53;3.87;73.19
76104;HTU21D;64831;44.870;37.336;2023-03-01T02:38:19;3.87;73.39
76104;HTU21D;64831;44.870;37.336;2023-03-01T02:40:46;3.89;73.35
76104;HTU21D;64831;44.870;37.336;2023-03-01T02:43:12;3.89;73.31
76104;HTU21D;64831;44.870;37.336;2023-03-01T02:45:42;3.89;73.21
76104;HTU21D;64831;44.870;37.336;2023-03-01T02:48:08;3.88;73.03
76104;HTU21D;64831;44.870;37.336;2023-03-01T02:50:46;3.89;73.06
76104;HTU21D;64831;44.870;37.336;2023-03-01T02:53:16;3.90;72.75
76104;HTU21D;64831;44.870;37.336;2023-03-01T02:55:45;3.91;72.88
76104;HTU21D;64831;44.870;37.336;2023-03-01T02:58:11;3.88;73.13
76104;HTU21D;64831;44.870;37.336;2023-03-01T03:00:38;3.89;72.99
76104;HTU21D;64831;44.870;37.336;2023-03-01T03:03:12;3.92;73.06
76104;HTU21D;64831;44.870;37.336;2023-03-01T03:05:39;3.92;72.95
76104;HTU21D;64831;44.870;37.336;2023-03-01T03:08:05;3.93;72.99
76104;HTU21D;64831;44.870;37.336;2023-03-01T03:10:36;3.94;73.11
76104;HTU21D;64831;44.870;37.336;2023-03-01T03:13:03;3.95;73.20
76104;HTU21D;64831;44.870;37.336;2023-03-01T03:15:29;3.98;73.16
76104;HTU21D;64831;44.870;37.336;2023-03-01T03:17:56;3.98;73.11
76104;HTU21D;64831;44.870;37.336;2023-03-01T03:20:23;3.97;72.88
76104;HTU21D;64831;44.870;37.336;2023-03-01T03:22:50;3.97;72.88
76104;HTU21D;64831;44.870;37.336;2023-03-01T03:25:17;3.99;72.75
76104;HTU21D;64831;44.870;37.336;2023-03-01T03:27:43;3.99;72.47
76104;HTU21D;64831;44.870;37.336;2023-03-01T03:30:10;3.99;72.83
76104;HTU21D;64831;44.870;37.336;2023-03-01T03:32:41;4.01;72.59
76104;HTU21D;64831;44.870;37.336;2023-03-01T03:35:07;4.00;72.97
76104;HTU21D;64831;44.870;37.336;2023-03-01T03:37:40;4.00;72.94
76104;HTU21D;64831;44.870;37.336;2023-03-01T03:40:25;4.00;72.95
76104;HTU21D;64831;44.870;37.336;2023-03-01T03:42:51;4.00;72.96
76104;HTU21D;64831;44.870;37.336;2023-03-01T03:45:17;4.02;72.62
76104;HTU21D;64831;44.870;37.336;2023-03-01T03:47:43;4.01;73.03
76104;HTU21D;64831;44.870;37.336;2023-03-01T03:50:11;4.02;73.31
76104;HTU21D;64831;44.870;37.336;2023-03-01T03:52:37;4.00;73.02
76104;HTU21D;64831;44.870;37.336;2023-03-01T03:55:03;4.00;73.35
76104;HTU21D;64831;44.870;37.336;2023-03-01T03:57:35;4.00;73.49
76104;HTU21D;64831;44.870;37.336;2023-03-01T04:00:00;4.02;73.51
76104;HTU21D;64831;44.870;37.336;2023-03-01T04:02:26;4.01;73.12
76104;HTU21D;64831;44.870;37.336;2023-03-01T04:04:52;4.00;73.44
76104;HTU21D;64831;44.870;37.336;2023-03-01T04:07:17;4.01;73.48
76104;HTU21D;64831;44.870;37.336;2023-03-01T04:09:43;4.01;73.63
76104;HTU21D;64831;44.870;37.336;2023-03-01T04:12:09;3.99;73.77
76104;HTU21D;64831;44.870;37.336;2023-03-01T04:14:35;3.99;73.41
76104;HTU21D;64831;44.870;37.336;2023-03-01T04:17:01;4.00;73.46
76104;HTU21D;64831;44.870;37.336;2023-03-01T04:19:30;3.99;73.22
76104;HTU21D;64831;44.870;37.336;2023-03-01T04:22:02;3.99;73.54
76104;HTU21D;64831;44.870;37.336;2023-03-01T04:24:33;3.95;73.75
76104;HTU21D;64831;44.870;37.336;2023-03-01T04:26:58;3.95;73.76
76104;HTU21D;64831;44.870;37.336;2023-03-01T04:29:24;3.94;73.81
76104;HTU21D;64831;44.870;37.336;2023-03-01T04:31:50;3.93;73.57
76104;HTU21D;64831;44.870;37.336;2023-03-01T04:34:15;3.90;73.87
76104;HTU21D;64831;44.870;37.336;2023-03-01T04:36:41;3.87;74.11
76104;HTU21D;64831;44.870;37.336;2023-03-01T04:39:07;3.85;74.22
76104;HTU21D;64831;44.870;37.336;2023-03-01T04:41:37;3.80;74.38
76104;HTU21D;64831;44.870;37.336;2023-03-01T04:44:08;3.79;74.49
76104;HTU21D;64831;44.870;37.336;2023-03-01T04:46:34;3.78;74.56
76104;HTU21D;64831;44.870;37.336;2023-03-01T04:49:00;3.82;74.54
76104;HTU21D;64831;44.870;37.336;2023-03-01T04:51:25;3.82;74.60
76104;HTU21D;64831;44.870;37.336;2023-03-01T04:53:51;3.82;74.82
76104;HTU21D;64831;44.870;37.336;2023-03-01T04:56:17;3.83;74.79
76104;HTU21D;64831;44.870;37.336;2023-03-01T04:58:43;3.84;74.85
76104;HTU21D;64831;44.870;37.336;2023-03-01T05:01:09;3.85;74.76
76104;HTU21D;64831;44.870;37.336;2023-03-01T05:03:41;3.87;74.80
76104;HTU21D;64831;44.870;37.336;2023-03-01T05:06:07;3.88;74.86
76104;HTU21D;64831;44.870;37.336;2023-03-01T05:08:32;3.86;74.73
76104;HTU21D;64831;44.870;37.336;2023-03-01T05:10:59;3.86;74.79
76104;HTU21D;64831;44.870;37.336;2023-03-01T05:13:25;3.84;74.90
76104;HTU21D;64831;44.870;37.336;2023-03-01T05:15:55;3.83;74.79
76104;HTU21D;64831;44.870;37.336;2023-03-01T05:18:22;3.83;74.15
76104;HTU21D;64831;44.870;37.336;2023-03-01T05:21:10;3.78;74.53
76104;HTU21D;64831;44.870;37.336;2023-03-01T05:23:36;3.75;74.23
76104;HTU21D;64831;44.870;37.336;2023-03-01T05:26:03;3.73;73.96
76104;HTU21D;64831;44.870;37.336;2023-03-01T05:28:29;3.70;73.57
76104;HTU21D;64831;44.870;37.336;2023-03-01T05:30:55;3.67;73.90
76104;HTU21D;64831;44.870;37.336;2023-03-01T05:33:22;3.64;74.23
76104;HTU21D;64831;44.870;37.336;2023-03-01T05:35:48;3.59;74.57
76104;HTU21D;64831;44.870;37.336;2023-03-01T05:38:14;3.58;74.83
76104;HTU21D;64831;44.870;37.336;2023-03-01T05:40:41;3.60;75.21
76104;HTU21D;64831;44.870;37.336;2023-03-01T05:43:07;3.61;75.63
76104;HTU21D;64831;44.870;37.336;2023-03-01T05:45:32;3.63;75.94
76104;HTU21D;64831;44.870;37.336;2023-03-01T05:47:58;3.67;75.92
76104;HTU21D;64831;44.870;37.336;2023-03-01T05:50:28;3.71;75.97
76104;HTU21D;64831;44.870;37.336;2023-03-01T05:53:04;3.74;76.06
76104;HTU21D;64831;44.870;37.336;2023-03-01T05:55:34;3.80;76.08
76104;HTU21D;64831;44.870;37.336;2023-03-01T05:58:07;3.90;76.13
76104;HTU21D;64831;44.870;37.336;2023-03-01T06:00:34;3.95;75.93
76104;HTU21D;64831;44.870;37.336;2023-03-01T06:03:00;4.00;75.81
76104;HTU21D;64831;44.870;37.336;2023-03-01T06:05:26;4.02;75.70
76104;HTU21D;64831;44.870;37.336;2023-03-01T06:07:52;4.05;75.23
76104;HTU21D;64831;44.870;37.336;2023-03-01T06:10:19;4.05;75.17
76104;HTU21D;64831;44.870;37.336;2023-03-01T06:12:45;4.06;75.11
76104;HTU21D;64831;44.870;37.336;2023-03-01T06:15:12;4.10;75.04
76104;HTU21D;64831;44.870;37.336;2023-03-01T06:17:38;4.15;75.05
76104;HTU21D;64831;44.870;37.336;2023-03-01T06:20:05;4.20;74.84
76104;HTU21D;64831;44.870;37.336;2023-03-01T06:22:30;4.24;74.50
76104;HTU21D;64831;44.870;37.336;2023-03-01T06:24:56;4.28;74.46
76104;HTU21D;64831;44.870;37.336;2023-03-01T06:27:22;4.33;74.51
76104;HTU21D;64831;44.870;37.336;2023-03-01T06:29:47;4.38;74.45
76104;HTU21D;64831;44.870;37.336;2023-03-01T06:32:14;4.45;74.17
76104;HTU21D;64831;44.870;37.336;2023-03-01T06:34:39;4.51;74.28
76104;HTU21D;64831;44.870;37.336;2023-03-01T06:37:05;4.59;74.02
76104;HTU21D;64831;44.870;37.336;2023-03-01T06:39:31;4.62;73.80
76104;HTU21D;64831;44.870;37.336;2023-03-01T06:41:57;4.69;73.40
76104;HTU21D;64831;44.870;37.336;2023-03-01T06:44:23;4.76;73.38
76104;HTU21D;64831;44.870;37.336;2023-03-01T06:46:49;4.83;73.09
76104;HTU21D;64831;44.870;37.336;2023-03-01T06:49:14;4.90;72.87
76104;HTU21D;64831;44.870;37.336;2023-03-01T06:51:41;4.93;72.59
76104;HTU21D;64831;44.870;37.336;2023-03-01T06:54:07;4.95;72.24
76104;HTU21D;64831;44.870;37.336;2023-03-01T06:56:33;4.97;72.13
76104;HTU21D;64831;44.870;37.336;2023-03-01T06:58:59;5.00;72.06
76104;HTU21D;64831;44.870;37.336;2023-03-01T07:01:24;5.03;72.04
76104;HTU21D;64831;44.870;37.336;2023-03-01T07:03:50;5.09;71.98
76104;HTU21D;64831;44.870;37.336;2023-03-01T07:06:16;5.13;71.84
76104;HTU21D;64831;44.870;37.336;2023-03-01T07:08:43;5.21;71.77
76104;HTU21D;64831;44.870;37.336;2023-03-01T07:11:08;5.26;71.39
76104;HTU21D;64831;44.870;37.336;2023-03-01T07:13:34;5.31;71.04
76104;HTU21D;64831;44.870;37.336;2023-03-01T07:16:00;5.38;71.13
76104;HTU21D;64831;44.870;37.336;2023-03-01T07:18:25;5.52;71.03
76104;HTU21D;64831;44.870;37.336;2023-03-01T07:20:51;5.67;70.69
76104;HTU21D;64831;44.870;37.336;2023-03-01T07:23:17;5.77;69.90
76104;HTU21D;64831;44.870;37.336;2023-03-01T07:25:43;5.85;69.50
76104;HTU21D;64831;44.870;37.336;2023-03-01T07:28:08;5.85;68.62
76104;HTU21D;64831;44.870;37.336;2023-03-01T07:30:34;5.97;68.71
76104;HTU21D;64831;44.870;37.336;2023-03-01T07:33:00;6.05;67.87
76104;HTU21D;64831;44.870;37.336;2023-03-01T07:35:26;6.08;67.91
76104;HTU21D;64831;44.870;37.336;2023-03-01T07:37:52;6.02;66.85
76104;HTU21D;64831;44.870;37.336;2023-03-01T07:40:17;6.08;66.85
76104;HTU21D;64831;44.870;37.336;2023-03-01T07:42:43;6.17;67.01
76104;HTU21D;64831;44.870;37.336;2023-03-01T07:45:09;6.34;67.15
76104;HTU21D;64831;44.870;37.336;2023-03-01T07:47:35;6.45;66.88
76104;HTU21D;64831;44.870;37.336;2023-03-01T07:50:01;6.48;65.43
76104;HTU21D;64831;44.870;37.336;2023-03-01T07:52:28;6.42;65.57
76104;HTU21D;64831;44.870;37.336;2023-03-01T07:54:54;6.41;65.77
76104;HTU21D;64831;44.870;37.336;2023-03-01T07:57:19;6.42;65.95
76104;HTU21D;64831;44.870;37.336;2023-03-01T07:59:45;6.44;65.75
76104;HTU21D;64831;44.870;37.336;2023-03-01T08:02:11;6.46;65.62
76104;HTU21D;64831;44.870;37.336;2023-03-01T11:49:26;8.60;51.58
76104;HTU21D;64831;44.870;37.336;2023-03-01T11:54:41;8.72;51.08
76104;HTU21D;64831;44.870;37.336;2023-03-01T12:02:12;8.94;49.33
76104;HTU21D;64831;44.870;37.336;2023-03-01T12:05:03;8.89;47.75
76104;HTU21D;64831;44.870;37.336;2023-03-01T12:07:33;8.85;47.88
76104;HTU21D;64831;44.870;37.336;2023-03-01T12:20:14;8.63;45.62
76104;HTU21D;64831;44.870;37.336;2023-03-01T12:38:31;9.06;44.28
76104;HTU21D;64831;44.870;37.336;2023-03-01T12:41:21;9.24;44.00
76104;HTU21D;64831;44.870;37.336;2023-03-01T13:56:28;8.18;49.41
76104;HTU21D;64831;44.870;37.336;2023-03-01T14:01:21;7.91;49.86
76104;HTU21D;64831;44.870;37.336;2023-03-01T14:03:47;7.82;50.33
76104;HTU21D;64831;44.870;37.336;2023-03-01T14:06:14;7.76;50.69
76104;HTU21D;64831;44.870;37.336;2023-03-01T14:08:43;7.72;50.82
76104;HTU21D;64831;44.870;37.336;2023-03-01T14:21:29;7.55;52.41
76104;HTU21D;64831;44.870;37.336;2023-03-01T14:23:55;7.47;52.42
76104;HTU21D;64831;44.870;37.336;2023-03-01T14:26:22;7.40;52.70
76104;HTU21D;64831;44.870;37.336;2023-03-01T14:28:48;7.31;52.70
76104;HTU21D;64831;44.870;37.336;2023-03-01T14:33:55;7.16;54.20
76104;HTU21D;64831;44.870;37.336;2023-03-01T14:36:25;7.07;54.69
76104;HTU21D;64831;44.870;37.336;2023-03-01T14:38:51;7.01;54.87
76104;HTU21D;64831;44.870;37.336;2023-03-01T14:41:21;6.99;55.11
76104;HTU21D;64831;44.870;37.336;2023-03-01T14:46:43;6.97;55.54
76104;HTU21D;64831;44.870;37.336;2023-03-01T14:49:14;6.98;55.39
76104;HTU21D;64831;44.870;37.336;2023-03-01T14:51:41;6.98;55.50
76104;HTU21D;64831;44.870;37.336;2023-03-01T14:54:21;6.99;55.36
76104;HTU21D;64831;44.870;37.336;2023-03-01T14:56:47;6.98;55.53
76104;HTU21D;64831;44.870;37.336;2023-03-01T14:59:13;6.98;55.58
76104;HTU21D;64831;44.870;37.336;2023-03-01T15:01:40;6.97;55.71
76104;HTU21D;64831;44.870;37.336;2023-03-01T15:04:07;6.97;55.84
76104;HTU21D;64831;44.870;37.336;2023-03-01T15:06:34;6.97;55.88
76104;HTU21D;64831;44.870;37.336;2023-03-01T15:09:00;6.95;55.91
76104;HTU21D;64831;44.870;37.336;2023-03-01T15:11:30;6.91;56.10
76104;HTU21D;64831;44.870;37.336;2023-03-01T15:13:56;6.88;55.95
76104;HTU21D;64831;44.870;37.336;2023-03-01T15:16:26;6.84;56.49
76104;HTU21D;64831;44.870;37.336;2023-03-01T15:19:02;6.80;56.13
76104;HTU21D;64831;44.870;37.336;2023-03-01T15:21:32;6.74;56.00
76104;HTU21D;64831;44.870;37.336;2023-03-01T15:24:17;6.69;56.60
76104;HTU21D;64831;44.870;37.336;2023-03-01T15:26:49;6.63;57.14
76104;HTU21D;64831;44.870;37.336;2023-03-01T15:29:17;6.59;56.90
76104;HTU21D;64831;44.870;37.336;2023-03-01T15:31:47;6.56;57.66
76104;HTU21D;64831;44.870;37.336;2023-03-01T15:34:28;6.53;57.61
76104;HTU21D;64831;44.870;37.336;2023-03-01T15:36:56;6.48;58.19
76104;HTU21D;64831;44.870;37.336;2023-03-01T15:39:32;6.43;58.56
76104;HTU21D;64831;44.870;37.336;2023-03-01T15:42:08;6.41;58.48
76104;HTU21D;64831;44.870;37.336;2023-03-01T15:44:37;6.40;58.47
76104;HTU21D;64831;44.870;37.336;2023-03-01T15:47:05;6.37;58.70
76104;HTU21D;64831;44.870;37.336;2023-03-01T15:49:40;6.33;58.84
76104;HTU21D;64831;44.870;37.336;2023-03-01T15:52:40;6.31;58.60
76104;HTU21D;64831;44.870;37.336;2023-03-01T15:55:04;6.29;58.69
76104;HTU21D;64831;44.870;37.336;2023-03-01T15:57:30;6.28;58.79
76104;HTU21D;64831;44.870;37.336;2023-03-01T15:59:56;6.27;58.71
76104;HTU21D;64831;44.870;37.336;2023-03-01T16:02:22;6.27;58.41
76104;HTU21D;64831;44.870;37.336;2023-03-01T16:04:48;6.27;58.55
76104;HTU21D;64831;44.870;37.336;2023-03-01T16:07:15;6.25;58.38
76104;HTU21D;64831;44.870;37.336;2023-03-01T16:09:40;6.25;58.16
76104;HTU21D;64831;44.870;37.336;2023-03-01T16:12:09;6.23;57.99
76104;HTU21D;64831;44.870;37.336;2023-03-01T16:14:38;6.21;58.02
76104;HTU21D;64831;44.870;37.336;2023-03-01T16:17:04;6.20;57.86
76104;HTU21D;64831;44.870;37.336;2023-03-01T16:19:30;6.20;57.63
76104;HTU21D;64831;44.870;37.336;2023-03-01T16:21:56;6.17;57.51
76104;HTU21D;64831;44.870;37.336;2023-03-01T16:24:22;6.14;57.43
76104;HTU21D;64831;44.870;37.336;2023-03-01T16:26:47;6.12;57.32
76104;HTU21D;64831;44.870;37.336;2023-03-01T16:29:13;6.08;57.34
76104;HTU21D;64831;44.870;37.336;2023-03-01T16:31:40;6.07;57.33
76104;HTU21D;64831;44.870;37.336;2023-03-01T16:34:06;6.05;57.35
76104;HTU21D;64831;44.870;37.336;2023-03-01T16:36:32;6.00;57.45
76104;HTU21D;64831;44.870;37.336;2023-03-01T16:38:59;5.97;57.49
76104;HTU21D;64831;44.870;37.336;2023-03-01T16:41:26;5.90;57.70
76104;HTU21D;64831;44.870;37.336;2023-03-01T16:43:52;5.84;57.89
76104;HTU21D;64831;44.870;37.336;2023-03-01T16:46:25;5.81;58.06
76104;HTU21D;64831;44.870;37.336;2023-03-01T16:48:51;5.78;58.19
76104;HTU21D;64831;44.870;37.336;2023-03-01T16:51:18;5.75;58.19
76104;HTU21D;64831;44.870;37.336;2023-03-01T16:53:45;5.70;58.28
76104;HTU21D;64831;44.870;37.336;2023-03-01T16:56:11;5.66;58.42
76104;HTU21D;64831;44.870;37.336;2023-03-01T16:58:37;5.63;58.31
76104;HTU21D;64831;44.870;37.336;2023-03-01T17:01:05;5.61;58.52
76104;HTU21D;64831;44.870;37.336;2023-03-01T17:03:31;5.61;58.25
76104;HTU21D;64831;44.870;37.336;2023-03-01T17:05:57;5.60;58.48
76104;HTU21D;64831;44.870;37.336;2023-03-01T17:08:26;5.57;58.93
76104;HTU21D;64831;44.870;37.336;2023-03-01T17:10:53;5.54;58.98
76104;HTU21D;64831;44.870;37.336;2023-03-01T17:13:18;5.54;59.41
76104;HTU21D;64831;44.870;37.336;2023-03-01T17:15:44;5.53;59.16
76104;HTU21D;64831;44.870;37.336;2023-03-01T17:18:10;5.53;58.85
76104;HTU21D;64831;44.870;37.336;2023-03-01T17:20:36;5.46;58.95
76104;HTU21D;64831;44.870;37.336;2023-03-01T17:23:02;5.37;58.60
76104;HTU21D;64831;44.870;37.336;2023-03-01T17:25:28;5.30;59.12
76104;HTU21D;64831;44.870;37.336;2023-03-01T17:27:54;5.22;59.66
76104;HTU21D;64831;44.870;37.336;2023-03-01T17:30:20;5.16;59.77
76104;HTU21D;64831;44.870;37.336;2023-03-01T17:32:46;5.11;59.93
76104;HTU21D;64831;44.870;37.336;2023-03-01T17:35:12;5.09;60.06
76104;HTU21D;64831;44.870;37.336;2023-03-01T17:37:38;5.08;60.20
76104;HTU21D;64831;44.870;37.336;2023-03-01T17:40:04;5.10;60.07
76104;HTU21D;64831;44.870;37.336;2023-03-01T17:42:31;5.10;60.07
76104;HTU21D;64831;44.870;37.336;2023-03-01T17:44:57;5.15;59.81
76104;HTU21D;64831;44.870;37.336;2023-03-01T17:47:23;5.19;59.76
76104;HTU21D;64831;44.870;37.336;2023-03-01T17:49:48;5.20;59.72
76104;HTU21D;64831;44.870;37.336;2023-03-01T17:52:14;5.25;59.56
76104;HTU21D;64831;44.870;37.336;2023-03-01T17:54:40;5.30;59.44
76104;HTU21D;64831;44.870;37.336;2023-03-01T17:57:06;5.34;59.41
76104;HTU21D;64831;44.870;37.336;2023-03-01T17:59:34;5.39;59.19
76104;HTU21D;64831;44.870;37.336;2023-03-01T18:02:01;5.41;58.99
76104;HTU21D;64831;44.870;37.336;2023-03-01T18:04:27;5.46;58.69
76104;HTU21D;64831;44.870;37.336;2023-03-01T18:06:53;5.48;58.54
76104;HTU21D;64831;44.870;37.336;2023-03-01T18:09:20;5.51;58.32
76104;HTU21D;64831;44.870;37.336;2023-03-01T18:11:46;5.53;58.38
76104;HTU21D;64831;44.870;37.336;2023-03-01T18:14:12;5.54;58.48
76104;HTU21D;64831;44.870;37.336;2023-03-01T18:16:38;5.56;58.51
76104;HTU21D;64831;44.870;37.336;2023-03-01T18:19:04;5.59;58.49
76104;HTU21D;64831;44.870;37.336;2023-03-01T18:21:30;5.60;58.54
76104;HTU21D;64831;44.870;37.336;2023-03-01T18:23:55;5.60;58.81
76104;HTU21D;64831;44.870;37.336;2023-03-01T18:26:21;5.60;59.09
76104;HTU21D;64831;44.870;37.336;2023-03-01T18:28:49;5.62;58.99
76104;HTU21D;64831;44.870;37.336;2023-03-01T18:31:16;5.62;58.92
76104;HTU21D;64831;44.870;37.336;2023-03-01T18:33:46;5.66;59.03
76104;HTU21D;64831;44.870;37.336;2023-03-01T18:36:31;5.65;59.03
76104;HTU21D;64831;44.870;37.336;2023-03-01T18:38:57;5.67;59.06
76104;HTU21D;64831;44.870;37.336;2023-03-01T18:41:24;5.67;59.05
76104;HTU21D;64831;44.870;37.336;2023-03-01T18:43:50;5.68;59.39
76104;HTU21D;64831;44.870;37.336;2023-03-01T18:46:16;5.67;59.61
76104;HTU21D;64831;44.870;37.336;2023-03-01T18:48:44;5.68;59.64
76104;HTU21D;64831;44.870;37.336;2023-03-01T18:51:17;5.68;59.96
76104;HTU21D;64831;44.870;37.336;2023-03-01T18:53:43;5.67;60.04
76104;HTU21D;64831;44.870;37.336;2023-03-01T18:56:09;5.68;59.85
76104;HTU21D;64831;44.870;37.336;2023-03-01T18:58:35;5.66;60.23
76104;HTU21D;64831;44.870;37.336;2023-03-01T19:01:01;5.67;60.43
76104;HTU21D;64831;44.870;37.336;2023-03-01T19:03:29;5.67;60.44
76104;HTU21D;64831;44.870;37.336;2023-03-01T19:05:56;5.68;60.00
76104;HTU21D;64831;44.870;37.336;2023-03-01T19:08:21;5.69;60.22
76104;HTU21D;64831;44.870;37.336;2023-03-01T19:10:53;5.67;59.96
76104;HTU21D;64831;44.870;37.336;2023-03-01T19:13:19;5.63;59.77
76104;HTU21D;64831;44.870;37.336;2023-03-01T19:15:45;5.55;59.60
76104;HTU21D;64831;44.870;37.336;2023-03-01T19:18:10;5.41;59.64
76104;HTU21D;64831;44.870;37.336;2023-03-01T19:20:36;5.26;59.71
76104;HTU21D;64831;44.870;37.336;2023-03-01T19:23:02;5.10;59.83
76104;HTU21D;64831;44.870;37.336;2023-03-01T19:25:27;4.95;60.09
76104;HTU21D;64831;44.870;37.336;2023-03-01T19:27:53;4.78;60.07
76104;HTU21D;64831;44.870;37.336;2023-03-01T19:30:19;4.65;60.32
76104;HTU21D;64831;44.870;37.336;2023-03-01T19:32:45;4.53;60.72
76104;HTU21D;64831;44.870;37.336;2023-03-01T19:35:11;4.47;60.69
76104;HTU21D;64831;44.870;37.336;2023-03-01T19:37:36;4.44;61.08
76104;HTU21D;64831;44.870;37.336;2023-03-01T19:40:02;4.42;61.22
76104;HTU21D;64831;44.870;37.336;2023-03-01T19:42:28;4.42;61.26
76104;HTU21D;64831;44.870;37.336;2023-03-01T19:44:53;4.43;61.49
76104;HTU21D;64831;44.870;37.336;2023-03-01T19:47:19;4.46;61.50
76104;HTU21D;64831;44.870;37.336;2023-03-01T19:49:45;4.45;61.02
76104;HTU21D;64831;44.870;37.336;2023-03-01T19:52:11;4.49;61.28
76104;HTU21D;64831;44.870;37.336;2023-03-01T19:54:36;4.51;61.67
76104;HTU21D;64831;44.870;37.336;2023-03-01T19:57:03;4.54;61.42
76104;HTU21D;64831;44.870;37.336;2023-03-01T19:59:29;4.60;61.16
76104;HTU21D;64831;44.870;37.336;2023-03-01T20:01:55;4.62;61.23
76104;HTU21D;64831;44.870;37.336;2023-03-01T20:04:21;4.66;61.47
76104;HTU21D;64831;44.870;37.336;2023-03-01T20:06:47;4.65;61.12
76104;HTU21D;64831;44.870;37.336;2023-03-01T20:09:13;4.62;60.96
76104;HTU21D;64831;44.870;37.336;2023-03-01T20:11:39;4.58;60.89
76104;HTU21D;64831;44.870;37.336;2023-03-01T20:14:07;4.53;60.96
76104;HTU21D;64831;44.870;37.336;2023-03-01T20:16:35;4.46;61.24
76104;HTU21D;64831;44.870;37.336;2023-03-01T20:19:01;4.34;61.31
76104;HTU21D;64831;44.870;37.336;2023-03-01T20:21:27;4.22;61.16
76104;HTU21D;64831;44.870;37.336;2023-03-01T20:23:53;4.09;61.40
76104;HTU21D;64831;44.870;37.336;2023-03-01T20:26:18;4.01;61.34
76104;HTU21D;64831;44.870;37.336;2023-03-01T20:28:45;4.00;61.64
76104;HTU21D;64831;44.870;37.336;2023-03-01T20:31:12;4.01;61.68
76104;HTU21D;64831;44.870;37.336;2023-03-01T20:33:38;4.03;61.89
76104;HTU21D;64831;44.870;37.336;2023-03-01T20:36:05;4.07;61.87
76104;HTU21D;64831;44.870;37.336;2023-03-01T20:38:31;4.12;61.79
76104;HTU21D;64831;44.870;37.336;2023-03-01T20:41:04;4.14;61.41
76104;HTU21D;64831;44.870;37.336;2023-03-01T20:43:30;4.17;61.73
76104;HTU21D;64831;44.870;37.336;2023-03-01T20:45:56;4.17;61.36
76104;HTU21D;64831;44.870;37.336;2023-03-01T20:48:22;4.21;61.28
76104;HTU21D;64831;44.870;37.336;2023-03-01T20:50:48;4.23;61.28
76104;HTU21D;64831;44.870;37.336;2023-03-01T20:53:14;4.27;61.50
76104;HTU21D;64831;44.870;37.336;2023-03-01T20:55:39;4.28;61.19
76104;HTU21D;64831;44.870;37.336;2023-03-01T20:58:05;4.28;61.38
76104;HTU21D;64831;44.870;37.336;2023-03-01T21:00:31;4.29;61.04
76104;HTU21D;64831;44.870;37.336;2023-03-01T21:02:56;4.29;61.14
76104;HTU21D;64831;44.870;37.336;2023-03-01T21:05:22;4.29;61.37
76104;HTU21D;64831;44.870;37.336;2023-03-01T21:07:51;4.28;61.05
76104;HTU21D;64831;44.870;37.336;2023-03-01T21:10:16;4.28;61.38